Terminal Aerodrome Forecast
Issued by NWS Wilmington, OH

Current Version | Previous Version | Text Only | Print | Product List | Glossary Off
Versions: 1 2 3 4 5 6 7 8 9 10 11 12 13 14 15 16 17 18 19

681
FTUS41 KILN 101126
TAFDAY
TAF
KDAY 101126Z 1012/1112 23010KT P6SM FEW025 BKN150
     FM101500 23014G22KT P6SM BKN070
     FM102300 24009KT P6SM BKN040 OVC150
     FM110600 28006KT P6SM SCT015 BKN150=

USA.gov is the U.S. government's official web portal to all federal, state and local government web resources and services.